Pen Mar, Pennsylvania
Current Conditions -  °F | °C
As of 5:53 AM on Monday 20 Oct 2014 (Local Time) from KRYT Reporting Station
Clear Clear  
Wind Chill: 38°   Ceiling: Unl
Heat Index: 38°   Visibility: 10mi
Dew Point: 34°   Wind: 0mph
Humidity: 86%   Direction: NA
Pressure: 30.06"   Gusts: NA
Location:  39.7777°N, 77.5693°W
Report Text: KRYT 200953Z AUTO 00000KT 10SM CLR 03/01 A3006 RMK AO2 SLP186 T00330011 $
Loading
Personal Weather Stations






























Interactive Weather Map New forecast layout! Learn more

10-Day Weather Forecast

Advertisements
Track Severe Weather on mobile